createdAt,value
2023-04-01T00:01:49.490Z,95291.22
2023-04-01T00:04:17.752Z,95299.25
2023-04-01T00:06:46.258Z,95286.53
2023-04-01T00:09:14.456Z,95294.13
2023-04-01T00:11:42.644Z,95289.81
2023-04-01T00:14:11.558Z,95298.69
2023-04-01T00:16:41.330Z,95292.91
2023-04-01T00:19:18.331Z,95298.00
2023-04-01T00:21:55.310Z,95295.66
2023-04-01T00:24:23.544Z,95297.03
2023-04-01T00:26:51.823Z,95297.47
2023-04-01T00:29:20.404Z,95299.81
2023-04-01T00:32:08.271Z,95294.81
2023-04-01T00:34:36.242Z,95303.00
2023-04-01T00:37:04.291Z,95303.00
2023-04-01T00:39:33.065Z,95305.34
2023-04-01T00:42:14.881Z,95296.19
2023-04-01T00:44:44.469Z,95300.09
2023-04-01T00:47:15.043Z,95302.72
2023-04-01T00:49:46.107Z,95309.50
2023-04-01T00:52:17.622Z,95306.19
2023-04-01T00:54:56.643Z,95311.16
2023-04-01T00:57:38.671Z,95305.88
2023-04-01T01:00:08.688Z,95311.72
2023-04-01T01:02:38.350Z,95301.31
2023-04-01T01:05:10.227Z,95300.63
2023-04-01T01:07:45.809Z,95298.69
2023-04-01T01:10:19.839Z,95303.25
2023-04-01T01:12:56.620Z,95295.25
2023-04-01T01:15:28.270Z,95299.09
2023-04-01T01:18:04.323Z,95298.69
2023-04-01T01:20:56.146Z,95298.97
2023-04-01T01:24:07.413Z,95295.13
2023-04-01T01:26:49.080Z,95295.66
2023-04-01T01:29:42.489Z,95297.34
2023-04-01T01:32:37.393Z,95309.50
2023-04-01T01:35:21.254Z,95306.19
2023-04-01T01:37:53.170Z,95308.09
2023-04-01T01:40:29.603Z,95313.66
2023-04-01T01:43:02.961Z,95300.91
2023-04-01T01:45:54.528Z,95300.38
2023-04-01T01:48:25.410Z,95293.72
2023-04-01T01:50:55.918Z,95307.28
2023-04-01T01:53:24.253Z,95298.97
2023-04-01T01:55:53.096Z,95298.16
2023-04-01T01:58:32.712Z,95295.25
2023-04-01T02:01:03.323Z,95295.94
2023-04-01T02:03:35.354Z,95288.75
2023-04-01T02:06:23.977Z,95288.88
2023-04-01T02:08:55.703Z,95295.13
2023-04-01T02:11:30.512Z,95281.41
2023-04-01T02:14:04.193Z,95280.16
2023-04-01T02:16:38.056Z,95280.41
2023-04-01T02:19:10.212Z,95298.97
2023-04-01T02:21:46.808Z,95303.66
2023-04-01T02:24:17.076Z,95290.22
2023-04-01T02:26:47.413Z,95290.09
2023-04-01T02:29:34.523Z,95300.91
2023-04-01T02:32:04.237Z,95296.19
2023-04-01T02:34:32.596Z,95285.53
2023-04-01T02:37:03.156Z,95284.31
2023-04-01T02:39:31.651Z,95295.94
2023-04-01T02:41:59.941Z,95296.19
2023-04-01T02:44:28.217Z,95300.63
2023-04-01T02:46:56.319Z,95299.22
2023-04-01T02:49:24.455Z,95293.28
2023-04-01T02:51:53.097Z,95296.19
2023-04-01T02:54:26.014Z,95295.66
2023-04-01T02:56:54.225Z,95292.72
2023-04-01T02:59:22.269Z,95295.06
2023-04-01T03:01:50.342Z,95297.41
2023-04-01T03:04:18.810Z,95292.03
2023-04-01T03:06:51.240Z,95295.94
2023-04-01T03:09:19.395Z,95300.34
2023-04-01T03:11:48.834Z,95304.06
2023-04-01T03:14:16.936Z,95292.03
2023-04-01T03:16:48.178Z,95290.63
2023-04-01T03:19:16.604Z,95298.09
2023-04-01T03:21:45.058Z,95298.50
2023-04-01T03:24:13.010Z,95297.84
2023-04-01T03:26:41.369Z,95299.22
2023-04-01T03:29:11.816Z,95302.25
2023-04-01T03:31:59.054Z,95298.78
2023-04-01T03:34:27.617Z,95292.00
2023-04-01T03:36:56.406Z,95289.81
2023-04-01T03:39:24.759Z,95301.00
2023-04-01T03:42:07.635Z,95298.38
2023-04-01T03:44:40.021Z,95288.28
2023-04-01T03:47:10.149Z,95287.72
2023-04-01T03:49:38.404Z,95292.41
2023-04-01T03:52:06.578Z,95287.44
2023-04-01T03:54:35.914Z,95287.16
2023-04-01T03:57:04.176Z,95285.91
2023-04-01T03:59:32.566Z,95278.72
2023-04-01T04:02:02.317Z,95287.25
2023-04-01T04:04:33.771Z,95264.72
2023-04-01T04:07:04.890Z,95272.88
2023-04-01T04:09:51.473Z,95279.78
2023-04-01T04:12:19.522Z,95267.34
2023-04-01T04:14:47.699Z,95274.13
2023-04-01T04:17:17.471Z,95277.16
2023-04-01T04:19:49.332Z,95278.13
2023-04-01T04:22:18.174Z,95275.50
2023-04-01T04:24:46.159Z,95276.63
2023-04-01T04:27:15.577Z,95280.59
2023-04-01T04:29:55.096Z,95275.06
2023-04-01T04:32:24.697Z,95277.81
2023-04-01T04:34:52.810Z,95280.31
2023-04-01T04:37:21.542Z,95270.63
2023-04-01T04:39:50.069Z,95281.84
2023-04-01T04:42:30.519Z,95270.75
2023-04-01T04:45:16.451Z,95275.84
2023-04-01T04:47:54.783Z,95275.28
2023-04-01T04:50:23.217Z,95280.25
2023-04-01T04:53:00.654Z,95281.13
2023-04-01T04:55:29.603Z,95273.34
2023-04-01T04:58:17.083Z,95276.41
2023-04-01T05:00:47.137Z,95272.69
2023-04-01T05:03:23.952Z,95270.59
2023-04-01T05:05:53.559Z,95260.66
2023-04-01T05:08:22.302Z,95256.78
2023-04-01T05:10:50.402Z,95260.13
2023-04-01T05:13:18.777Z,95258.19
2023-04-01T05:15:49.868Z,95259.16
2023-04-01T05:18:18.539Z,95260.66
2023-04-01T05:20:56.063Z,95252.53
2023-04-01T05:23:24.660Z,95243.81
2023-04-01T05:25:53.793Z,95250.75
2023-04-01T05:28:30.944Z,95239.94
2023-04-01T05:31:00.804Z,95246.19
2023-04-01T05:33:33.572Z,95247.44
2023-04-01T05:36:10.603Z,95245.63
2023-04-01T05:38:39.601Z,95246.03
2023-04-01T05:41:10.765Z,95244.13
2023-04-01T05:43:44.415Z,95246.50
2023-04-01T05:46:35.877Z,95238.03
2023-04-01T05:49:21.035Z,95246.91
2023-04-01T05:52:00.926Z,95251.59
2023-04-01T05:54:30.049Z,95244.16
2023-04-01T05:56:58.235Z,95244.16
2023-04-01T05:59:26.278Z,95241.66
2023-04-01T06:01:55.103Z,95235.47
2023-04-01T06:04:23.467Z,95240.44
2023-04-01T06:06:52.472Z,95235.16
2023-04-01T06:09:27.981Z,95241.13
2023-04-01T06:12:16.791Z,95239.72
2023-04-01T06:15:24.944Z,95238.91
2023-04-01T06:18:10.810Z,95244.88
2023-04-01T06:20:48.800Z,95240.31
2023-04-01T06:23:47.702Z,95244.16
2023-04-01T06:26:32.032Z,95239.03
2023-04-01T06:29:13.266Z,95242.75
2023-04-01T06:31:57.868Z,95247.78
2023-04-01T06:34:45.123Z,95242.75
2023-04-01T06:37:25.556Z,95235.31
2023-04-01T06:40:31.408Z,95237.50
2023-04-01T06:43:15.164Z,95235.84
2023-04-01T06:46:21.955Z,95238.06
2023-04-01T06:49:50.862Z,95234.31
2023-04-01T06:52:49.833Z,95233.91
2023-04-01T06:55:41.525Z,95236.25
2023-04-01T06:58:24.362Z,95238.19
2023-04-01T07:00:55.752Z,95237.53
2023-04-01T07:03:33.951Z,95240.00
2023-04-01T07:06:06.284Z,95247.34
2023-04-01T07:08:44.127Z,95235.13
2023-04-01T07:11:16.544Z,95246.66
2023-04-01T07:14:11.266Z,95244.84
2023-04-01T07:16:46.110Z,95241.50
2023-04-01T07:19:20.785Z,95246.94
2023-04-01T07:22:23.731Z,95251.91
2023-04-01T07:25:15.158Z,95235.84
2023-04-01T07:27:47.495Z,95238.59
2023-04-01T07:30:17.477Z,95242.78
2023-04-01T07:32:53.125Z,95250.81
2023-04-01T07:35:35.420Z,95252.03
2023-04-01T07:38:17.079Z,95253.72
2023-04-01T07:40:54.277Z,95255.78
2023-04-01T07:43:38.509Z,95259.66
2023-04-01T07:46:44.894Z,95258.13
2023-04-01T07:49:19.316Z,95259.78
2023-04-01T07:51:59.736Z,95260.34
2023-04-01T07:54:35.107Z,95258.09
2023-04-01T07:57:09.636Z,95255.59
2023-04-01T08:00:00.089Z,95262.38
2023-04-01T08:02:58.572Z,95273.34
2023-04-01T08:05:32.763Z,95272.34
2023-04-01T08:08:14.295Z,95273.06
2023-04-01T08:11:34.204Z,95258.91
2023-04-01T08:14:28.273Z,95262.25
2023-04-01T08:17:23.020Z,95266.81
2023-04-01T08:20:10.593Z,95264.88
2023-04-01T08:22:44.187Z,95280.13
2023-04-01T08:25:26.438Z,95271.53
2023-04-01T08:28:02.003Z,95269.59
2023-04-01T08:30:41.281Z,95274.56
2023-04-01T08:33:17.132Z,95274.16
2023-04-01T08:35:51.326Z,95276.53
2023-04-01T08:38:26.978Z,95286.50
2023-04-01T08:41:02.566Z,95289.53
2023-04-01T08:44:27.055Z,95285.69
2023-04-01T08:47:26.666Z,95286.50
2023-04-01T08:50:36.455Z,95283.88
2023-04-01T08:53:36.988Z,95287.63
2023-04-01T08:56:17.332Z,95290.94
2023-04-01T08:59:15.696Z,95289.28
2023-04-01T09:02:16.996Z,95282.09
2023-04-01T09:05:24.664Z,95283.41
2023-04-01T09:08:06.159Z,95286.88
2023-04-01T09:11:02.594Z,95281.03
2023-04-01T09:14:08.903Z,95277.41
2023-04-01T09:17:20.510Z,95289.72
2023-04-01T09:20:11.163Z,95284.22
2023-04-01T09:22:52.735Z,95286.81
2023-04-01T09:25:32.385Z,95286.50
2023-04-01T09:28:12.730Z,95291.59
2023-04-01T09:31:16.401Z,95289.63
2023-04-01T09:34:23.483Z,95300.09
2023-04-01T09:37:21.727Z,95298.97
2023-04-01T09:40:18.221Z,95301.34
2023-04-01T09:43:18.013Z,95299.78
2023-04-01T09:46:00.571Z,95303.88
2023-04-01T09:49:19.677Z,95309.97
2023-04-01T09:52:01.278Z,95304.69
2023-04-01T09:54:54.048Z,95310.69
2023-04-01T09:58:03.655Z,95321.06
2023-04-01T10:01:28.923Z,95306.78
2023-04-01T10:04:38.436Z,95316.78
2023-04-01T10:07:37.617Z,95322.03
2023-04-01T10:10:37.273Z,95318.41
2023-04-01T10:13:27.626Z,95318.84
2023-04-01T10:16:43.622Z,95331.16
2023-04-01T10:19:56.310Z,95324.38
2023-04-01T10:22:51.156Z,95320.88
2023-04-01T10:25:48.814Z,95320.25
2023-04-01T10:28:46.415Z,95313.13
2023-04-01T10:31:45.213Z,95327.63
2023-04-01T10:34:50.097Z,95319.09
2023-04-01T10:37:34.308Z,95323.03
2023-04-01T10:40:38.105Z,95319.78
2023-04-01T10:44:13.894Z,95326.81
2023-04-01T10:47:04.900Z,95321.09
2023-04-01T10:50:12.385Z,95317.84
2023-04-01T10:53:33.191Z,95322.28
2023-04-01T10:56:36.991Z,95323.13
2023-04-01T11:00:00.445Z,95322.59
2023-04-01T11:03:42.153Z,95330.34
2023-04-01T11:06:58.538Z,95321.31
2023-04-01T11:09:52.569Z,95327.44
2023-04-01T11:13:05.511Z,95329.06
2023-04-01T11:15:50.355Z,95323.50
2023-04-01T11:18:48.487Z,95327.34
2023-04-01T11:21:51.390Z,95333.91
2023-04-01T11:24:46.556Z,95329.94
2023-04-01T11:28:03.786Z,95335.19
2023-04-01T11:30:46.463Z,95340.94
2023-04-01T11:33:21.909Z,95339.28
2023-04-01T11:36:11.090Z,95340.19
2023-04-01T11:39:00.956Z,95342.00
2023-04-01T11:41:54.138Z,95344.63
2023-04-01T11:44:50.292Z,95357.13
2023-04-01T11:47:46.973Z,95349.41
2023-04-01T11:50:32.462Z,95356.63
2023-04-01T11:53:24.856Z,95354.06
2023-04-01T11:56:04.044Z,95361.28
2023-04-01T11:58:59.029Z,95354.22
2023-04-01T12:01:45.433Z,95353.00
2023-04-01T12:04:43.711Z,95356.38
2023-04-01T12:07:29.818Z,95365.22
2023-04-01T12:10:07.929Z,95356.16
2023-04-01T12:12:54.129Z,95349.56
2023-04-01T12:15:34.680Z,95368.09
2023-04-01T12:18:10.336Z,95359.50
2023-04-01T12:20:50.570Z,95379.66
2023-04-01T12:23:44.308Z,95370.69
2023-04-01T12:26:28.582Z,95370.00
2023-04-01T12:29:16.356Z,95382.56
2023-04-01T12:31:55.006Z,95380.03
2023-04-01T12:34:53.853Z,95383.72
2023-04-01T12:37:31.609Z,95386.34
2023-04-01T12:40:29.681Z,95387.84
2023-04-01T12:43:21.196Z,95374.19
2023-04-01T12:45:54.160Z,95371.66
2023-04-01T12:49:01.722Z,95373.00
2023-04-01T12:51:51.047Z,95370.66
2023-04-01T12:54:37.928Z,95374.69
2023-04-01T12:57:17.890Z,95371.19
2023-04-01T13:00:04.119Z,95368.03
2023-04-01T13:02:47.466Z,95374.03
2023-04-01T13:05:32.925Z,95387.13
2023-04-01T13:08:22.829Z,95381.50
2023-04-01T13:11:04.683Z,95381.50
2023-04-01T13:13:47.581Z,95382.28
2023-04-01T13:16:20.405Z,95388.16
2023-04-01T13:18:59.577Z,95391.03
2023-04-01T13:21:40.764Z,95379.88
2023-04-01T13:24:21.381Z,95370.94
2023-04-01T13:27:00.497Z,95389.25
2023-04-01T13:29:33.988Z,95389.59
2023-04-01T13:32:33.212Z,95403.47
2023-04-01T13:35:25.914Z,95392.56
2023-04-01T13:38:12.558Z,95398.56
2023-04-01T13:41:02.181Z,95409.38
2023-04-01T13:43:37.872Z,95414.34
2023-04-01T13:46:25.885Z,95414.41
2023-04-01T13:49:22.071Z,95406.44
2023-04-01T13:52:13.861Z,95407.25
2023-04-01T13:55:01.036Z,95405.81
2023-04-01T13:57:55.920Z,95406.44
2023-04-01T14:00:49.383Z,95417.44
2023-04-01T14:03:34.540Z,95408.69
2023-04-01T14:06:19.460Z,95402.72
2023-04-01T14:09:12.917Z,95403.56
2023-04-01T14:11:49.769Z,95403.09
2023-04-01T14:14:30.270Z,95416.91
2023-04-01T14:17:10.725Z,95423.91
2023-04-01T14:20:21.763Z,95413.06
2023-04-01T14:23:14.885Z,95418.41
2023-04-01T14:26:03.887Z,95411.03
2023-04-01T14:28:38.466Z,95423.34
2023-04-01T14:31:29.225Z,95416.38
2023-04-01T14:34:07.593Z,95412.78
2023-04-01T14:37:02.576Z,95418.06
2023-04-01T14:39:54.514Z,95422.56
2023-04-01T14:42:43.662Z,95432.47
2023-04-01T14:45:45.774Z,95425.44
2023-04-01T14:48:25.348Z,95418.84
2023-04-01T14:50:56.644Z,95422.38
2023-04-01T14:53:31.331Z,95415.38
2023-04-01T14:56:03.799Z,95422.72
2023-04-01T14:58:44.565Z,95421.22
2023-04-01T15:01:37.147Z,95426.78
2023-04-01T15:04:25.402Z,95427.19
2023-04-01T15:07:05.770Z,95431.66
2023-04-01T15:09:42.792Z,95431.66
2023-04-01T15:12:25.507Z,95437.25
2023-04-01T15:15:05.771Z,95441.53
2023-04-01T15:17:59.487Z,95449.47
2023-04-01T15:20:44.872Z,95450.47
2023-04-01T15:23:27.237Z,95450.47
2023-04-01T15:26:23.768Z,95450.16
2023-04-01T15:29:25.145Z,95456.31
2023-04-01T15:31:59.167Z,95455.50
2023-04-01T15:34:36.048Z,95451.88
2023-04-01T15:37:12.057Z,95454.91
2023-04-01T15:39:53.706Z,95452.97
2023-04-01T15:42:33.932Z,95460.06
2023-04-01T15:45:18.535Z,95463.03
2023-04-01T15:47:55.967Z,95473.00
2023-04-01T15:50:51.124Z,95473.28
2023-04-01T15:53:37.626Z,95476.09
2023-04-01T15:56:18.233Z,95484.72
2023-04-01T15:59:01.581Z,95487.56
2023-04-01T16:01:41.669Z,95485.13
2023-04-01T16:04:27.705Z,95486.31
2023-04-01T16:07:07.103Z,95473.50
2023-04-01T16:09:46.610Z,95476.06
2023-04-01T16:12:19.949Z,95475.38
2023-04-01T16:15:04.288Z,95481.16
2023-04-01T16:17:46.942Z,95475.38
2023-04-01T16:20:21.854Z,95471.91
2023-04-01T16:23:00.222Z,95472.84
2023-04-01T16:25:36.126Z,95472.41
2023-04-01T16:28:23.324Z,95474.09
2023-04-01T16:30:59.780Z,95477.97
2023-04-01T16:33:40.052Z,95475.72
2023-04-01T16:36:21.519Z,95476.69
2023-04-01T16:38:55.217Z,95477.38
2023-04-01T16:41:28.122Z,95487.00
2023-04-01T16:44:07.774Z,95480.06
2023-04-01T16:46:41.606Z,95480.06
2023-04-01T16:49:30.017Z,95488.94
2023-04-01T16:52:14.611Z,95485.91
2023-04-01T16:54:48.348Z,95488.81
2023-04-01T16:57:27.552Z,95487.00
2023-04-01T17:00:01.921Z,95484.34
2023-04-01T17:02:35.480Z,95485.63
2023-04-01T17:05:07.585Z,95491.19
2023-04-01T17:07:47.501Z,95491.88
2023-04-01T17:10:37.582Z,95491.50
2023-04-01T17:13:36.625Z,95494.94
2023-04-01T17:16:31.051Z,95487.34
2023-04-01T17:19:08.683Z,95494.81
2023-04-01T17:21:52.858Z,95495.13
2023-04-01T17:24:34.024Z,95502.03
2023-04-01T17:27:16.084Z,95506.50
2023-04-01T17:30:03.485Z,95509.94
2023-04-01T17:32:47.403Z,95519.66
2023-04-01T17:35:21.473Z,95519.09
2023-04-01T17:38:06.525Z,95513.81
2023-04-01T17:40:46.458Z,95526.91
2023-04-01T17:43:24.691Z,95523.00
2023-04-01T17:45:57.235Z,95523.31
2023-04-01T17:48:40.688Z,95526.75
2023-04-01T17:51:28.572Z,95535.94
2023-04-01T17:54:13.181Z,95543.03
2023-04-01T17:56:51.728Z,95544.16
2023-04-01T17:59:31.867Z,95557.34
2023-04-01T18:02:06.550Z,95556.06
2023-04-01T18:05:01.100Z,95570.53
2023-04-01T18:07:46.765Z,95582.44
2023-04-01T18:10:32.175Z,95585.38
2023-04-01T18:13:33.314Z,95598.97
2023-04-01T18:16:13.946Z,95594.50
2023-04-01T18:18:54.308Z,95594.09
2023-04-01T18:21:32.887Z,95596.03
2023-04-01T18:24:05.621Z,95596.97
2023-04-01T18:26:37.988Z,95597.84
2023-04-01T18:29:16.873Z,95599.31
2023-04-01T18:31:47.776Z,95597.34
2023-04-01T18:34:28.637Z,95599.25
2023-04-01T18:37:01.524Z,95611.47
2023-04-01T18:39:37.889Z,95609.66
2023-04-01T18:42:18.235Z,95610.06
2023-04-01T18:44:51.042Z,95614.75
2023-04-01T18:47:29.207Z,95610.16
2023-04-01T18:50:04.038Z,95614.59
2023-04-01T18:52:38.180Z,95616.63
2023-04-01T18:55:31.194Z,95620.63
2023-04-01T18:58:15.790Z,95620.91
2023-04-01T19:00:50.694Z,95629.22
2023-04-01T19:03:24.520Z,95625.28
2023-04-01T19:06:07.787Z,95615.72
2023-04-01T19:08:41.363Z,95623.91
2023-04-01T19:11:16.768Z,95625.25
2023-04-01T19:13:59.053Z,95632.19
2023-04-01T19:16:38.806Z,95627.03
2023-04-01T19:19:23.892Z,95631.16
2023-04-01T19:21:58.172Z,95635.31
2023-04-01T19:24:53.532Z,95637.00
2023-04-01T19:27:34.075Z,95632.97
2023-04-01T19:30:23.602Z,95626.88
2023-04-01T19:32:58.505Z,95619.94
2023-04-01T19:35:37.871Z,95619.50
2023-04-01T19:38:13.380Z,95622.69
2023-04-01T19:40:53.787Z,95623.66
2023-04-01T19:43:36.658Z,95615.75
2023-04-01T19:46:16.332Z,95625.31
2023-04-01T19:48:53.685Z,95628.22
2023-04-01T19:51:31.240Z,95631.22
2023-04-01T19:54:06.280Z,95647.84
2023-04-01T19:56:41.380Z,95653.69
2023-04-01T19:59:18.959Z,95652.41
2023-04-01T20:01:52.824Z,95656.97
2023-04-01T20:04:26.778Z,95658.63
2023-04-01T20:06:59.496Z,95646.19
2023-04-01T20:09:50.779Z,95653.88
2023-04-01T20:12:31.635Z,95658.69
2023-04-01T20:15:03.105Z,95658.69
2023-04-01T20:17:41.099Z,95674.34
2023-04-01T20:20:22.793Z,95666.56
2023-04-01T20:23:04.226Z,95680.69
2023-04-01T20:25:40.160Z,95676.38
2023-04-01T20:28:15.680Z,95680.59
2023-04-01T20:31:05.377Z,95688.59
2023-04-01T20:34:10.701Z,95680.44
2023-04-01T20:36:52.634Z,95696.22
2023-04-01T20:39:42.384Z,95698.03
2023-04-01T20:42:36.445Z,95698.13
2023-04-01T20:45:21.117Z,95703.28
2023-04-01T20:48:06.175Z,95706.75
2023-04-01T20:50:45.774Z,95712.16
2023-04-01T20:53:18.229Z,95709.25
2023-04-01T20:56:15.184Z,95707.44
2023-04-01T20:58:53.830Z,95711.28
2023-04-01T21:01:34.875Z,95716.53
2023-04-01T21:04:30.457Z,95712.97
2023-04-01T21:07:23.272Z,95709.63
2023-04-01T21:10:09.062Z,95722.78
2023-04-01T21:12:48.639Z,95712.38
2023-04-01T21:15:37.836Z,95716.91
2023-04-01T21:18:40.584Z,95709.03
2023-04-01T21:21:23.549Z,95710.84
2023-04-01T21:24:25.141Z,95703.66
2023-04-01T21:27:01.881Z,95710.56
2023-04-01T21:29:47.927Z,95711.66
2023-04-01T21:32:43.798Z,95721.94
2023-04-01T21:35:23.619Z,95722.78
2023-04-01T21:38:14.882Z,95728.31
2023-04-01T21:40:59.815Z,95727.31
2023-04-01T21:44:00.805Z,95734.00
2023-04-01T21:46:53.539Z,95732.31
2023-04-01T21:49:51.600Z,95736.38
2023-04-01T21:52:47.966Z,95742.84
2023-04-01T21:56:03.658Z,95749.19
2023-04-01T21:59:03.949Z,95747.28
2023-04-01T22:01:56.825Z,95749.78
2023-04-01T22:04:59.623Z,95759.34
2023-04-01T22:07:33.810Z,95762.78
2023-04-01T22:10:11.881Z,95769.03
2023-04-01T22:12:48.040Z,95766.03
2023-04-01T22:15:26.558Z,95760.31
2023-04-01T22:18:02.644Z,95766.41
2023-04-01T22:20:38.002Z,95758.41
2023-04-01T22:23:32.799Z,95769.84
2023-04-01T22:26:07.313Z,95767.38
2023-04-01T22:28:40.809Z,95769.59
2023-04-01T22:31:15.225Z,95764.47
2023-04-01T22:33:51.634Z,95771.19
2023-04-01T22:36:29.632Z,95765.94
2023-04-01T22:39:23.352Z,95762.72
2023-04-01T22:42:02.579Z,95770.59
2023-04-01T22:44:49.386Z,95774.69
2023-04-01T22:47:27.472Z,95772.88
2023-04-01T22:50:01.330Z,95774.69
2023-04-01T22:52:35.523Z,95777.84
2023-04-01T22:55:19.573Z,95775.22
2023-04-01T22:57:53.980Z,95777.59
2023-04-01T23:00:26.318Z,95782.03
2023-04-01T23:03:13.978Z,95779.88
2023-04-01T23:05:53.183Z,95783.75
2023-04-01T23:09:05.087Z,95777.75
2023-04-01T23:11:37.853Z,95779.91
2023-04-01T23:14:47.708Z,95782.06
2023-04-01T23:17:40.423Z,95785.06
2023-04-01T23:20:34.285Z,95790.81
2023-04-01T23:23:17.591Z,95787.69
2023-04-01T23:25:56.278Z,95799.28
2023-04-01T23:28:48.346Z,95794.16
2023-04-01T23:31:50.201Z,95797.97
2023-04-01T23:34:26.676Z,95803.47
2023-04-01T23:37:00.096Z,95802.88
2023-04-01T23:39:44.889Z,95806.22
2023-04-01T23:42:20.905Z,95808.84
2023-04-01T23:44:51.409Z,95811.72
2023-04-01T23:47:22.681Z,95804.53
2023-04-01T23:49:55.112Z,95815.28
2023-04-01T23:52:37.283Z,95818.38
2023-04-01T23:55:25.240Z,95817.91
2023-04-01T23:58:16.296Z,95820.78
